Time;durP1;ratioP1;P1;durP2;ratioP2;P2;SDS_P1;SDS_P2;PMS_P1;PMS_P2;Temp;Humidity;BMP_temperature;BMP_pressure;BME280_temperature;BME280_humidity;BME280_pressure;Samples;Min_cycle;Max_cycle;Signal;HPM_P1;HPM_P2
2023/10/22 00:01:16;;;;;;;;;;;;;;;-144.99;100.00;52562.25;5109380;28;19927;-62
2023/10/22 00:03:43;;;;;;;;;;;;;;;-144.99;100.00;52562.25;5100580;28;19979;-62
2023/10/22 00:06:09;;;;;;;;;;;;;;;-144.99;100.00;52517.41;5094230;28;19928;-61
2023/10/22 00:08:36;;;;;;;;;;;;;;;-144.99;100.00;52529.63;5100513;28;20470;-62
2023/10/22 00:11:02;;;;;;;;;;;;;;;-144.99;100.00;52525.56;5099456;28;19928;-62
2023/10/22 00:13:32;;;;;;;;;;;;;;;-144.99;100.00;52533.69;5091170;28;19971;-61
2023/10/22 00:15:58;;;;;;;;;;;;;;;-144.99;100.00;52552.03;5098026;28;20339;-61
2023/10/22 00:18:25;;;;;;;;;;;;;;;-144.99;100.00;52550.00;5092928;28;19989;-60
2023/10/22 00:20:52;;;;;;;;;;;;;;;-144.99;100.00;52462.34;5099736;28;20460;-61
2023/10/22 00:23:18;;;;;;;;;;;;;;;-144.99;100.00;52558.16;5101223;28;20010;-62
2023/10/22 00:25:45;;;;;;;;;;;;;;;-144.99;100.00;52541.84;5092933;28;19970;-62
2023/10/22 00:28:12;;;;;;;;;;;;;;;-144.99;100.00;52497.00;5102150;28;19928;-62
2023/10/22 00:30:40;;;;;;;;;;;;;;;-144.99;100.00;52513.31;5105190;28;19923;-61
2023/10/22 00:33:06;;;;;;;;;;;;;;;-144.99;100.00;52529.63;5099161;28;20019;-61
2023/10/22 00:35:33;;;;;;;;;;;;;;;-144.99;100.00;52533.69;5093413;28;20023;-62
2023/10/22 00:37:59;;;;;;;;;;;;;;;-144.99;100.00;52545.94;5097154;28;19997;-66
2023/10/22 00:40:26;;;;;;;;;;;;;;;-144.99;100.00;52545.94;5097688;28;19932;-66
2023/10/22 00:42:52;;;;;;;;;;;;;;;-144.99;100.00;52566.31;5099437;28;19975;-65
2023/10/22 00:45:19;;;;;;;;;;;;;;;-144.99;100.00;52564.28;5099607;28;19923;-65
2023/10/22 00:47:47;;;;;;;;;;;;;;;-144.99;100.00;52562.25;5085600;28;20383;-65
2023/10/22 00:50:14;;;;;;;;;;;;;;;-144.99;100.00;52537.78;5101753;28;20385;-65
2023/10/22 00:52:41;;;;;;;;;;;;;;;-144.99;100.00;52537.78;5097364;28;20392;-65
2023/10/22 00:55:11;;;;;;;;;;;;;;;-144.99;100.00;52517.41;5094433;28;19924;-65
2023/10/22 00:57:39;;;;;;;;;;;;;;;-144.99;100.00;52562.25;5098111;28;19928;-65
2023/10/22 01:00:07;;;;;;;;;;;;;;;-144.99;100.00;52556.13;5097782;28;19971;-65
2023/10/22 01:02:33;;;;;;;;;;;;;;;-144.99;100.00;52533.69;5095889;28;19924;-66
2023/10/22 01:05:01;;;;;;;;;;;;;;;-144.99;100.00;52541.84;5093802;28;19985;-65
2023/10/22 01:07:30;;;;;;;;;;;;;;;-144.99;100.00;52533.69;5098617;28;19993;-66
2023/10/22 01:09:56;;;;;;;;;;;;;;;-144.99;100.00;52552.03;5091088;28;20296;-65
2023/10/22 01:12:23;;;;;;;;;;;;;;;-144.99;100.00;52552.03;5102169;28;19931;-64
2023/10/22 01:14:49;;;;;;;;;;;;;;;-144.99;100.00;52541.84;5102996;28;19938;-63
2023/10/22 01:17:15;;;;;;;;;;;;;;;-144.99;100.00;52537.78;5093466;28;19978;-63
2023/10/22 01:19:43;;;;;;;;;;;;;;;-144.99;100.00;52580.59;5096433;28;19928;-64
2023/10/22 01:22:11;;;;;;;;;;;;;;;-144.99;100.00;52525.56;5099863;28;20361;-64
2023/10/22 01:24:38;;;;;;;;;;;;;;;-144.99;100.00;52543.91;5102615;28;19963;-62
2023/10/22 01:27:05;;;;;;;;;;;;;;;-144.99;100.00;52537.78;5102713;28;19975;-63
2023/10/22 01:29:31;;;;;;;;;;;;;;;-144.99;100.00;52521.47;5102663;28;20012;-63
2023/10/22 01:31:58;;;;;;;;;;;;;;;-144.99;100.00;52562.25;5102514;28;19974;-62
2023/10/22 01:34:24;;;;;;;;;;;;;;;-144.99;100.00;52517.41;5096545;28;20703;-63
2023/10/22 01:36:51;;;;;;;;;;;;;;;-144.99;100.00;52582.63;5097713;28;19984;-65
2023/10/22 01:39:17;;;;;;;;;;;;;;;-144.99;100.00;52550.00;5101406;28;20011;-62
2023/10/22 01:41:44;;;;;;;;;;;;;;;-144.99;100.00;52499.06;5101351;28;20130;-62
2023/10/22 01:44:10;;;;;;;;;;;;;;;-144.99;100.00;52529.63;5105683;28;19940;-64
2023/10/22 01:46:37;;;;;;;;;;;;;;;-144.99;100.00;52554.09;5102859;28;19974;-62
2023/10/22 01:49:03;;;;;;;;;;;;;;;-144.99;100.00;52562.25;5094819;28;20397;-64
2023/10/22 01:51:30;;;;;;;;;;;;;;;-144.99;100.00;52554.09;5097865;28;20029;-65
2023/10/22 01:53:56;;;;;;;;;;;;;;;-144.99;100.00;52505.16;5102462;28;19977;-63
2023/10/22 01:56:23;;;;;;;;;;;;;;;-144.99;100.00;52521.47;5100868;28;19962;-64
2023/10/22 01:58:51;;;;;;;;;;;;;;;-144.99;100.00;52574.47;5090639;28;20023;-63
2023/10/22 02:01:17;;;;;;;;;;;;;;;-144.99;100.00;52554.09;5099645;28;19928;-62
2023/10/22 02:03:46;;;;;;;;;;;;;;;-144.99;100.00;52556.13;5104180;28;19923;-63
2023/10/22 02:06:12;;;;;;;;;;;;;;;-144.99;100.00;52582.63;5107602;28;20369;-64
2023/10/22 02:08:39;;;;;;;;;;;;;;;-144.99;100.00;52541.84;5097739;28;20268;-63
2023/10/22 02:11:06;;;;;;;;;;;;;;;-144.99;100.00;52537.78;5097449;28;19924;-65
2023/10/22 02:13:32;;;;;;;;;;;;;;;-144.99;100.00;52533.69;5093314;28;20094;-66
2023/10/22 02:16:01;;;;;;;;;;;;;;;-144.99;100.00;52533.69;5103805;28;20001;-67
2023/10/22 02:18:28;;;;;;;;;;;;;;;-144.99;100.00;52533.69;5079605;28;19928;-67
2023/10/22 02:20:55;;;;;;;;;;;;;;;-144.99;100.00;52533.69;5102941;28;20385;-67
2023/10/22 02:23:22;;;;;;;;;;;;;;;-144.99;100.00;52562.25;5093843;28;19956;-67
2023/10/22 02:25:49;;;;;;;;;;;;;;;-144.99;100.00;52582.63;5096419;28;19955;-68
2023/10/22 02:28:15;;;;;;;;;;;;;;;-144.99;100.00;52562.25;5098984;28;19963;-67
2023/10/22 02:30:42;;;;;;;;;;;;;;;-144.99;100.00;52574.47;5097449;28;20368;-67
2023/10/22 02:33:10;;;;;;;;;;;;;;;-144.99;100.00;52556.13;5096624;28;20526;-68
2023/10/22 02:35:39;;;;;;;;;;;;;;;-144.99;100.00;52550.00;5097547;28;19975;-68
2023/10/22 02:38:05;;;;;;;;;;;;;;;-144.99;100.00;52574.47;5096525;28;19928;-68
2023/10/22 02:40:34;;;;;;;;;;;;;;;-144.99;100.00;52509.25;5096220;28;19975;-68
2023/10/22 02:43:01;;;;;;;;;;;;;;;-144.99;100.00;52490.91;5096395;28;19967;-68
2023/10/22 02:45:27;;;;;;;;;;;;;;;-144.99;100.00;52570.38;5100217;28;19928;-66
2023/10/22 02:47:55;;;;;;;;;;;;;;;-144.99;100.00;52570.38;5100587;28;19923;-67
2023/10/22 02:50:24;;;;;;;;;;;;;;;-144.99;100.00;52550.00;5094643;28;20011;-68
2023/10/22 02:52:50;;;;;;;;;;;;;;;-144.99;100.00;52529.63;5096787;28;19954;-68
2023/10/22 02:55:17;;;;;;;;;;;;;;;-144.99;100.00;52537.78;5092308;28;19978;-68
2023/10/22 02:57:43;;;;;;;;;;;;;;;-144.99;100.00;52558.16;5095801;28;19967;-68
2023/10/22 03:00:11;;;;;;;;;;;;;;;-144.99;100.00;52543.91;5091002;28;19959;-68
2023/10/22 03:02:37;;;;;;;;;;;;;;;-144.99;100.00;52541.84;5098851;28;20031;-67
2023/10/22 03:05:04;;;;;;;;;;;;;;;-144.99;100.00;52517.41;5093088;28;20288;-67
2023/10/22 03:07:32;;;;;;;;;;;;;;;-144.99;100.00;52562.25;5098706;28;20010;-69
2023/10/22 03:09:58;;;;;;;;;;;;;;;-144.99;100.00;52550.00;5107837;28;19928;-69
2023/10/22 03:12:25;;;;;;;;;;;;;;;-144.99;100.00;52537.78;5101994;28;19971;-69
2023/10/22 03:14:51;;;;;;;;;;;;;;;-144.99;100.00;52509.25;5095944;28;20032;-69
2023/10/22 03:17:18;;;;;;;;;;;;;;;-144.99;100.00;52558.16;5094945;28;19936;-70
2023/10/22 03:19:45;;;;;;;;;;;;;;;-144.99;100.00;52558.16;5097607;28;20050;-67
2023/10/22 03:22:11;;;;;;;;;;;;;;;-144.99;100.00;52570.38;5102335;28;20342;-67
2023/10/22 03:24:39;;;;;;;;;;;;;;;-144.99;100.00;52517.41;5096052;28;20011;-67
2023/10/22 03:27:06;;;;;;;;;;;;;;;-144.99;100.00;52550.00;5104208;28;19974;-64
2023/10/22 03:29:32;;;;;;;;;;;;;;;-144.99;100.00;52566.31;5090113;28;19977;-68
2023/10/22 03:31:59;;;;;;;;;;;;;;;-144.99;100.00;52545.94;5097986;28;20038;-67
2023/10/22 03:34:25;;;;;;;;;;;;;;;-144.99;100.00;52580.59;5091633;28;19985;-66
2023/10/22 03:36:52;;;;;;;;;;;;;;;-144.99;100.00;52541.84;5093438;28;19985;-66
2023/10/22 03:39:18;;;;;;;;;;;;;;;-144.99;100.00;52545.94;5093059;28;20327;-66
2023/10/22 03:41:46;;;;;;;;;;;;;;;-144.99;100.00;52541.84;5105914;28;20042;-66
2023/10/22 03:44:13;;;;;;;;;;;;;;;-144.99;100.00;52529.63;5097657;28;19966;-67
2023/10/22 03:46:39;;;;;;;;;;;;;;;-144.99;100.00;52550.00;5099889;28;20015;-69
2023/10/22 03:49:06;;;;;;;;;;;;;;;-144.99;100.00;52570.38;5100573;28;20007;-66
2023/10/22 03:51:33;;;;;;;;;;;;;;;-144.99;100.00;52521.47;5101716;28;19935;-67
2023/10/22 03:54:00;;;;;;;;;;;;;;;-144.99;100.00;52582.63;5101344;28;19928;-65
2023/10/22 03:56:27;;;;;;;;;;;;;;;-144.99;100.00;52521.47;5099983;28;19924;-62
2023/10/22 03:58:54;;;;;;;;;;;;;;;-144.99;100.00;52566.31;5103151;28;19924;-62
2023/10/22 04:01:21;;;;;;;;;;;;;;;-144.99;100.00;52521.47;5101997;28;20006;-70
2023/10/22 04:03:48;;;;;;;;;;;;;;;-144.99;100.00;52537.78;5100075;28;20019;-69
2023/10/22 04:06:14;;;;;;;;;;;;;;;-144.99;100.00;52492.94;5096635;28;19989;-69
2023/10/22 04:08:41;;;;;;;;;;;;;;;-144.99;100.00;52541.84;5098688;28;20000;-70
2023/10/22 04:11:07;;;;;;;;;;;;;;;-144.99;100.00;52550.00;5096767;28;19971;-70
2023/10/22 04:13:34;;;;;;;;;;;;;;;-144.99;100.00;52570.38;5100231;28;19931;-71
2023/10/22 04:16:01;;;;;;;;;;;;;;;-144.99;100.00;52541.84;5098548;28;19924;-70
2023/10/22 04:18:28;;;;;;;;;;;;;;;-144.99;100.00;52545.94;5103241;28;19977;-70
2023/10/22 04:20:54;;;;;;;;;;;;;;;-144.99;100.00;52558.16;5093131;28;20011;-71
2023/10/22 04:23:21;;;;;;;;;;;;;;;-144.99;100.00;52578.53;5103726;27;19963;-71
2023/10/22 04:25:47;;;;;;;;;;;;;;;-144.99;100.00;52547.97;5095571;28;19969;-72
2023/10/22 04:28:14;;;;;;;;;;;;;;;-144.99;100.00;52529.63;5100748;28;19966;-71
2023/10/22 04:30:43;;;;;;;;;;;;;;;-144.99;100.00;52550.00;5105325;28;19932;-67
2023/10/22 04:33:11;;;;;;;;;;;;;;;-144.99;100.00;52570.38;5094836;28;20450;-67
2023/10/22 04:35:37;;;;;;;;;;;;;;;-144.99;100.00;52550.00;5098195;28;20351;-67
2023/10/22 04:38:04;;;;;;;;;;;;;;;-144.99;100.00;52574.47;5099199;28;19931;-67
2023/10/22 04:40:32;;;;;;;;;;;;;;;-144.99;100.00;52545.94;5094485;28;19997;-66
2023/10/22 04:42:58;;;;;;;;;;;;;;;-144.99;100.00;52537.78;5101821;28;19927;-66
2023/10/22 04:45:25;;;;;;;;;;;;;;;-144.99;100.00;52539.81;5091574;28;20379;-66
2023/10/22 04:47:51;;;;;;;;;;;;;;;-144.99;100.00;52531.66;5091268;28;19931;-66
2023/10/22 04:50:19;;;;;;;;;;;;;;;-144.99;100.00;52566.31;5092467;28;19981;-66
2023/10/22 04:52:45;;;;;;;;;;;;;;;-144.99;100.00;52531.66;5096204;28;20372;-67
2023/10/22 04:55:12;;;;;;;;;;;;;;;-144.99;100.00;52552.03;5093717;28;19960;-67
2023/10/22 04:57:39;;;;;;;;;;;;;;;-144.99;100.00;52550.00;5092765;28;19955;-67
2023/10/22 05:00:07;;;;;;;;;;;;;;;-144.99;100.00;52517.41;5102710;28;19923;-66
2023/10/22 05:02:33;;;;;;;;;;;;;;;-144.99;100.00;52545.94;5102558;28;19932;-67
2023/10/22 05:05:00;;;;;;;;;;;;;;;-144.99;100.00;52554.09;5083873;28;20026;-67
2023/10/22 05:07:28;;;;;;;;;;;;;;;-144.99;100.00;52541.84;5096787;28;20347;-67
2023/10/22 05:09:54;;;;;;;;;;;;;;;-144.99;100.00;52550.00;5097318;28;20024;-70
2023/10/22 05:12:21;;;;;;;;;;;;;;;-144.99;100.00;52533.69;5096066;28;19924;-66
2023/10/22 05:14:49;;;;;;;;;;;;;;;-144.99;100.00;52509.25;5098178;28;21100;-66
2023/10/22 05:17:16;;;;;;;;;;;;;;;-144.99;100.00;52533.69;5095493;28;20336;-68
2023/10/22 05:19:43;;;;;;;;;;;;;;;-144.99;100.00;52554.09;5101916;28;19952;-68
2023/10/22 05:22:09;;;;;;;;;;;;;;;-144.99;100.00;52545.94;5108440;28;20303;-68
2023/10/22 05:24:37;;;;;;;;;;;;;;;-144.99;100.00;52576.50;5109359;28;19924;-68
2023/10/22 05:27:04;;;;;;;;;;;;;;;-144.99;100.00;52521.47;5103971;28;19975;-67
2023/10/22 05:29:31;;;;;;;;;;;;;;;-144.99;100.00;52558.16;5097302;28;19935;-68
2023/10/22 05:31:58;;;;;;;;;;;;;;;-144.99;100.00;52570.38;5099438;28;20022;-66
2023/10/22 05:34:24;;;;;;;;;;;;;;;-144.99;100.00;52558.16;5099221;28;20023;-70
2023/10/22 05:36:51;;;;;;;;;;;;;;;-144.99;100.00;52562.25;5099001;28;20023;-71
2023/10/22 05:39:17;;;;;;;;;;;;;;;-144.99;100.00;52539.81;5106866;28;19924;-70
2023/10/22 05:41:45;;;;;;;;;;;;;;;-144.99;100.00;52545.94;5091154;28;19928;-67
2023/10/22 05:44:11;;;;;;;;;;;;;;;-144.99;100.00;52550.00;5098721;28;19967;-67
2023/10/22 05:46:38;;;;;;;;;;;;;;;-144.99;100.00;52578.53;5102219;28;20356;-67
2023/10/22 05:49:05;;;;;;;;;;;;;;;-144.99;100.00;52541.84;5098685;28;20489;-66
2023/10/22 05:51:32;;;;;;;;;;;;;;;-144.99;100.00;52590.78;5092744;28;19928;-67
2023/10/22 05:53:58;;;;;;;;;;;;;;;-144.99;100.00;52570.38;5099574;28;19930;-65
2023/10/22 05:56:26;;;;;;;;;;;;;;;-144.99;100.00;52562.25;5090872;28;19971;-66
2023/10/22 05:58:54;;;;;;;;;;;;;;;-144.99;100.00;52554.09;5097984;28;19924;-65
2023/10/22 06:01:20;;;;;;;;;;;;;;;-144.99;100.00;52594.84;5091119;28;19962;-65
2023/10/22 06:03:46;;;;;;;;;;;;;;;-144.99;100.00;52564.28;5088829;28;20047;-65
2023/10/22 06:06:17;;;;;;;;;;;;;;;-144.99;100.00;52554.09;5091497;28;19978;-65
2023/10/22 06:08:45;;;;;;;;;;;;;;;-144.99;100.00;52558.16;5102058;28;20408;-65
2023/10/22 06:11:12;;;;;;;;;;;;;;;-144.99;100.00;52545.94;5091297;28;20330;-65
2023/10/22 06:13:38;;;;;;;;;;;;;;;-144.99;100.00;52574.47;5098985;28;19932;-69
2023/10/22 06:16:07;;;;;;;;;;;;;;;-144.99;100.00;52525.56;5095316;28;19928;-69
2023/10/22 06:18:34;;;;;;;;;;;;;;;-144.99;100.00;52556.13;5091127;28;19939;-69
2023/10/22 06:21:00;;;;;;;;;;;;;;;-144.99;100.00;52570.38;5095118;28;20428;-67
2023/10/22 06:23:27;;;;;;;;;;;;;;;-144.99;100.00;52529.63;5097662;28;19956;-67
2023/10/22 06:25:53;;;;;;;;;;;;;;;-144.99;100.00;52515.34;5089976;28;19955;-68
2023/10/22 06:28:20;;;;;;;;;;;;;;;-144.99;100.00;52566.31;5092505;28;20014;-68
2023/10/22 06:30:46;;;;;;;;;;;;;;;-144.99;100.00;52497.00;5098780;28;19924;-68
2023/10/22 06:33:14;;;;;;;;;;;;;;;-144.99;100.00;52541.84;5097250;28;19924;-69
2023/10/22 06:35:40;;;;;;;;;;;;;;;-144.99;100.00;52515.34;5100600;28;19930;-69
2023/10/22 06:38:07;;;;;;;;;;;;;;;-144.99;100.00;52488.84;5103835;28;19935;-69
2023/10/22 06:40:34;;;;;;;;;;;;;;;-144.99;100.00;52533.69;5099529;28;19977;-69
2023/10/22 06:43:01;;;;;;;;;;;;;;;-144.99;100.00;52539.81;5097779;28;19956;-68
2023/10/22 06:45:28;;;;;;;;;;;;;;;-144.99;100.00;52521.47;5094773;28;19928;-69
2023/10/22 06:47:56;;;;;;;;;;;;;;;-144.99;100.00;52509.25;5096996;28;19957;-68
2023/10/22 06:50:24;;;;;;;;;;;;;;;-144.99;100.00;52525.56;5103411;28;19928;-69
2023/10/22 06:52:50;;;;;;;;;;;;;;;-144.99;100.00;52554.09;5101872;28;20014;-69
2023/10/22 06:55:17;;;;;;;;;;;;;;;-144.99;100.00;52529.63;5101979;28;19931;-65
2023/10/22 06:57:44;;;;;;;;;;;;;;;-144.99;100.00;52562.25;5092741;28;19924;-67
2023/10/22 07:00:12;;;;;;;;;;;;;;;-144.99;100.00;52513.31;5082207;28;20412;-70
2023/10/22 07:02:39;;;;;;;;;;;;;;;-144.99;100.00;52550.00;5089137;28;19925;-73
2023/10/22 07:05:10;;;;;;;;;;;;;;;-144.99;100.00;52480.72;5100434;28;19928;-73
2023/10/22 07:07:41;;;;;;;;;;;;;;;-144.99;100.00;52554.09;5099556;28;19932;-73
2023/10/22 07:10:09;;;;;;;;;;;;;;;-144.99;100.00;52509.25;5096467;28;20007;-75
2023/10/22 07:12:35;;;;;;;;;;;;;;;-144.99;100.00;52492.94;5099812;28;19936;-75
2023/10/22 07:15:02;;;;;;;;;;;;;;;-144.99;100.00;52521.47;5102130;28;20030;-75
2023/10/22 07:17:28;;;;;;;;;;;;;;;-144.99;100.00;52527.59;5098967;28;19938;-74
2023/10/22 07:19:55;;;;;;;;;;;;;;;-144.99;100.00;52497.00;5100020;28;19964;-75
2023/10/22 07:22:21;;;;;;;;;;;;;;;-144.99;100.00;52517.41;5094653;27;19924;-75
2023/10/22 07:24:51;;;;;;;;;;;;;;;-144.99;100.00;52484.78;5096101;28;20019;-75
2023/10/22 07:27:18;;;;;;;;;;;;;;;-144.99;100.00;52497.00;5098710;28;19963;-73
2023/10/22 07:29:44;;;;;;;;;;;;;;;-144.99;100.00;52537.78;5106672;28;19944;-73
2023/10/22 07:32:11;;;;;;;;;;;;;;;-144.99;100.00;52539.81;5102163;28;20437;-73
2023/10/22 07:34:38;;;;;;;;;;;;;;;-144.99;100.00;52513.31;5103075;28;20358;-74
2023/10/22 07:37:04;;;;;;;;;;;;;;;-144.99;100.00;52529.63;5109559;28;19928;-75
2023/10/22 07:39:31;;;;;;;;;;;;;;;-144.99;100.00;52576.50;5101288;28;19928;-74
2023/10/22 07:41:59;;;;;;;;;;;;;;;-144.99;100.00;52521.47;5107864;28;19977;-73
2023/10/22 07:44:26;;;;;;;;;;;;;;;-144.99;100.00;52525.56;5114026;28;19920;-74
2023/10/22 07:46:52;;;;;;;;;;;;;;;-144.99;100.00;52529.63;5105608;28;20019;-71
2023/10/22 07:49:20;;;;;;;;;;;;;;;-144.99;100.00;52488.84;5107894;28;19924;-68
2023/10/22 07:54:15;;;;;;;;;;;;;;;-144.99;100.00;52492.94;5068585;28;20294;-66
2023/10/22 07:56:42;;;;;;;;;;;;;;;-144.99;100.00;52507.19;5070177;28;20353;-65
2023/10/22 07:59:10;;;;;;;;;;;;;;;-144.99;100.00;52529.63;5070152;28;19958;-64
2023/10/22 08:01:36;;;;;;;;;;;;;;;-144.99;100.00;52472.56;5087184;28;19959;-64
2023/10/22 08:04:03;;;;;;;;;;;;;;;-144.99;100.00;52492.94;5085418;28;19971;-66
2023/10/22 08:06:29;;;;;;;;;;;;;;;-144.99;100.00;52533.69;5089570;28;20416;-68
2023/10/22 08:08:57;;;;;;;;;;;;;;;-144.99;100.00;52494.97;5084661;28;20001;-69
2023/10/22 08:11:23;;;;;;;;;;;;;;;-144.99;100.00;52497.00;5091694;28;19931;-68
2023/10/22 08:13:50;;;;;;;;;;;;;;;-144.99;100.00;52484.78;5084501;28;20361;-69
2023/10/22 08:16:17;;;;;;;;;;;;;;;-144.99;100.00;52519.44;5087858;28;20371;-68
2023/10/22 08:18:44;;;;;;;;;;;;;;;-144.99;100.00;52503.13;5079503;28;19971;-67
2023/10/22 08:21:10;;;;;;;;;;;;;;;-144.99;100.00;52484.78;5088616;28;19939;-68
2023/10/22 08:23:37;;;;;;;;;;;;;;;-144.99;100.00;52537.78;5090833;28;19924;-68
2023/10/22 08:26:04;;;;;;;;;;;;;;;-144.99;100.00;52484.78;5091818;28;20087;-69
2023/10/22 08:28:30;;;;;;;;;;;;;;;-144.99;100.00;52509.25;5092845;28;19935;-69
2023/10/22 08:30:58;;;;;;;;;;;;;;;-144.99;100.00;52472.56;5090470;28;20406;-69
2023/10/22 08:33:26;;;;;;;;;;;;;;;-144.99;99.86;52484.78;5087265;28;19931;-66
2023/10/22 08:35:53;;;;;;;;;;;;;;;-144.99;98.34;52497.00;5087741;28;20093;-69
2023/10/22 08:38:19;;;;;;;;;;;;;;;-144.99;98.22;52501.09;5089632;28;19939;-68
2023/10/22 08:40:46;;;;;;;;;;;;;;;-144.99;98.20;52492.94;5091245;28;19980;-69
2023/10/22 08:43:17;;;;;;;;;;;;;;;-144.99;98.87;52501.09;5081558;28;19924;-68
2023/10/22 08:45:46;;;;;;;;;;;;;;;-144.99;99.24;52525.56;5085583;28;19947;-70
2023/10/22 08:48:12;;;;;;;;;;;;;;;-144.99;99.72;52527.59;5087252;28;19935;-69
2023/10/22 08:50:43;;;;;;;;;;;;;;;-144.99;100.00;52492.94;5087468;28;19955;-70
2023/10/22 08:53:12;;;;;;;;;;;;;;;-144.99;100.00;52570.38;5086332;28;19929;-70
2023/10/22 08:55:39;;;;;;;;;;;;;;;-144.99;100.00;52472.56;5087577;28;20030;-69
2023/10/22 08:58:05;;;;;;;;;;;;;;;-144.99;100.00;52492.94;5087208;28;20415;-68
2023/10/22 09:00:33;;;;;;;;;;;;;;;-144.99;100.00;52539.81;5081670;28;19981;-70
2023/10/22 09:03:00;;;;;;;;;;;;;;;-144.99;100.00;52525.56;5085941;28;19924;-68
2023/10/22 09:05:26;;;;;;;;;;;;;;;-144.99;100.00;52513.31;5087173;28;20175;-68
2023/10/22 09:07:55;;;;;;;;;;;;;;;-144.99;100.00;52511.28;5086681;28;20014;-70
2023/10/22 09:10:25;;;;;;;;;;;;;;;-144.99;100.00;52539.81;5087225;28;19944;-69
2023/10/22 09:12:52;;;;;;;;;;;;;;;-144.99;100.00;52541.84;5088708;28;19935;-69
2023/10/22 09:15:18;;;;;;;;;;;;;;;-144.99;100.00;52494.97;5082935;28;19989;-69
2023/10/22 09:17:45;;;;;;;;;;;;;;;-144.99;100.00;52513.31;5086200;28;20022;-69
2023/10/22 09:20:20;;;;;;;;;;;;;;;-144.99;100.00;52558.16;5085748;28;19935;-67
2023/10/22 09:22:47;;;;;;;;;;;;;;;-144.99;100.00;52529.63;5089681;28;19967;-58
2023/10/22 09:25:16;;;;;;;;;;;;;;;-144.99;100.00;52497.00;5085155;28;20026;-58
2023/10/22 09:27:43;;;;;;;;;;;;;;;-144.99;100.00;52480.72;5082850;28;20298;-67
2023/10/22 09:30:11;;;;;;;;;;;;;;;-144.99;100.00;52521.47;5088186;28;19988;-68
2023/10/22 09:32:45;;;;;;;;;;;;;;;-144.99;100.00;52521.47;5088612;28;19924;-58
2023/10/22 09:35:12;;;;;;;;;;;;;;;-144.99;100.00;52541.84;5087225;28;19928;-57
2023/10/22 09:37:49;;;;;;;;;;;;;;;-144.99;100.00;52541.84;5084942;28;20320;-63
2023/10/22 09:40:23;;;;;;;;;;;;;;;-144.99;100.00;52537.78;5088829;28;19935;-64
2023/10/22 09:42:50;;;;;;;;;;;;;;;-144.99;100.00;52541.84;5088494;28;20416;-64
2023/10/22 09:45:18;;;;;;;;;;;;;;;-144.99;100.00;52519.44;5088508;28;19938;-65
2023/10/22 09:47:46;;;;;;;;;;;;;;;-144.99;100.00;52554.09;5087896;28;19996;-68
2023/10/22 09:50:18;;;;;;;;;;;;;;;-144.99;100.00;52513.31;5088675;28;19971;-65
2023/10/22 09:52:45;;;;;;;;;;;;;;;-144.99;100.00;52521.47;5089468;28;19928;-65
2023/10/22 09:55:13;;;;;;;;;;;;;;;-144.99;100.00;52505.16;5084389;28;19932;-67
2023/10/22 09:57:41;;;;;;;;;;;;;;;-144.99;100.00;52533.69;5088122;28;19928;-67
2023/10/22 10:00:12;;;;;;;;;;;;;;;-144.99;100.00;52550.00;5086661;28;20380;-68
2023/10/22 10:02:39;;;;;;;;;;;;;;;-144.99;100.00;52517.41;5089664;28;20467;-66
2023/10/22 10:05:07;;;;;;;;;;;;;;;-144.99;100.00;52476.63;5088544;28;19959;-67
2023/10/22 10:07:33;;;;;;;;;;;;;;;-144.99;100.00;52541.84;5076122;28;19979;-67
2023/10/22 10:10:02;;;;;;;;;;;;;;;-144.99;100.00;52537.78;5083838;28;19967;-67
2023/10/22 10:12:31;;;;;;;;;;;;;;;-144.99;100.00;52511.28;5088568;28;19928;-68
2023/10/22 10:14:59;;;;;;;;;;;;;;;-144.99;100.00;52515.34;5088979;28;19924;-67
2023/10/22 10:17:25;;;;;;;;;;;;;;;-144.99;100.00;52525.56;5088215;28;19936;-65
2023/10/22 10:19:52;;;;;;;;;;;;;;;-144.99;100.00;52529.63;5080283;28;19924;-64
2023/10/22 10:22:37;;;;;;;;;;;;;;;-144.99;100.00;52558.16;5083839;28;19944;-68
2023/10/22 10:25:18;;;;;;;;;;;;;;;-144.99;100.00;52552.03;5084046;28;19928;-63
2023/10/22 10:27:50;;;;;;;;;;;;;;;-144.99;100.00;52517.41;5082604;28;20455;-62
2023/10/22 10:30:20;;;;;;;;;;;;;;;-144.99;100.00;52541.84;5082818;28;19934;-62
2023/10/22 10:32:49;;;;;;;;;;;;;;;-144.99;100.00;52497.00;5088267;28;19931;-62
2023/10/22 10:35:16;;;;;;;;;;;;;;;-144.99;100.00;52558.16;5087339;28;19928;-63
2023/10/22 10:37:57;;;;;;;;;;;;;;;-144.99;100.00;52517.41;5086820;28;19973;-57
2023/10/22 10:40:38;;;;;;;;;;;;;;;-144.99;100.00;52556.13;5085681;28;19985;-57
2023/10/22 10:43:05;;;;;;;;;;;;;;;-144.99;100.00;52501.09;5074416;28;19996;-59
2023/10/22 10:45:33;;;;;;;;;;;;;;;-144.99;100.00;52513.31;5071631;28;19932;-59
2023/10/22 10:47:59;;;;;;;;;;;;;;;-144.99;100.00;52537.78;5098468;22;20336;-78
2023/10/22 10:50:27;;;;;;;;;;;;;;;-144.99;100.00;52499.06;5110226;28;20459;-77
2023/10/22 10:52:58;;;;;;;;;;;;;;;-144.99;100.00;52517.41;5129570;22;20756;-80
2023/10/22 10:55:32;;;;;;;;;;;;;;;-144.99;100.00;52566.31;5078139;28;19928;-76
2023/10/22 10:57:59;;;;;;;;;;;;;;;-144.99;100.00;52501.09;5094552;22;19943;-76
2023/10/22 11:02:58;;;;;;;;;;;;;;;-144.99;100.00;52513.31;5126224;22;19957;-62
2023/10/22 11:05:39;;;;;;;;;;;;;;;-144.99;100.00;52541.84;5126931;27;20020;-67
2023/10/22 11:08:06;;;;;;;;;;;;;;;-144.99;100.00;52552.03;5126511;27;20016;-67
2023/10/22 11:10:33;;;;;;;;;;;;;;;-144.99;100.00;52525.56;5127485;27;19927;-67
2023/10/22 11:13:03;;;;;;;;;;;;;;;-144.99;100.00;52537.78;5129403;27;19967;-68
2023/10/22 11:15:33;;;;;;;;;;;;;;;-144.99;100.00;52566.31;4775021;27;9999784;-67
2023/10/22 11:18:05;;;;;;;;;;;;;;;-144.99;100.00;52517.41;5125137;27;19934;-67
2023/10/22 11:20:31;;;;;;;;;;;;;;;-144.99;100.00;52521.47;5125790;27;19938;-67
2023/10/22 11:22:58;;;;;;;;;;;;;;;-144.99;100.00;52529.63;5124323;27;19970;-68
2023/10/22 11:25:25;;;;;;;;;;;;;;;-144.99;100.00;52501.09;5115625;27;19930;-67
2023/10/22 11:27:51;;;;;;;;;;;;;;;-144.99;100.00;52494.97;5114448;27;19927;-67
2023/10/22 11:30:33;;;;;;;;;;;;;;;-144.99;100.00;52533.69;5112959;27;20019;-67
2023/10/22 11:33:00;;;;;;;;;;;;;;;-144.99;100.00;52517.41;5113530;27;19927;-67
2023/10/22 11:35:31;;;;;;;;;;;;;;;-144.99;100.00;52513.31;5114522;27;19927;-69
2023/10/22 11:37:58;;;;;;;;;;;;;;;-144.99;100.00;52527.59;5113908;27;19928;-68
2023/10/22 11:40:25;;;;;;;;;;;;;;;-144.99;100.00;52521.47;5113868;27;19937;-68
2023/10/22 11:42:52;;;;;;;;;;;;;;;-144.99;100.00;52525.56;5113981;27;19928;-66
2023/10/22 11:45:19;;;;;;;;;;;;;;;-144.99;100.00;52525.56;5120822;27;20028;-67
2023/10/22 11:47:46;;;;;;;;;;;;;;;-144.99;100.00;52505.16;5129389;27;19949;-66
2023/10/22 11:50:14;;;;;;;;;;;;;;;-144.99;100.00;52505.16;5126367;27;20316;-67
2023/10/22 11:52:51;;;;;;;;;;;;;;;-144.99;100.00;52505.16;5128217;27;19942;-66
2023/10/22 11:55:18;;;;;;;;;;;;;;;-144.99;100.00;52521.47;5123613;27;19978;-67
2023/10/22 11:57:45;;;;;;;;;;;;;;;-144.99;100.00;52476.63;5127965;27;19923;-65
2023/10/22 12:00:12;;;;;;;;;;;;;;;-144.99;100.00;52505.16;5126355;27;19932;-67
2023/10/22 12:02:39;;;;;;;;;;;;;;;-144.99;100.00;52488.84;5127242;27;19927;-67
2023/10/22 12:05:06;;;;;;;;;;;;;;;-144.99;100.00;52497.00;5125201;27;20002;-67
2023/10/22 12:07:33;;;;;;;;;;;;;;;-144.99;100.00;52452.16;5122785;27;20109;-67
2023/10/22 12:10:01;;;;;;;;;;;;;;;-144.99;100.00;52509.25;5124178;27;19962;-66
2023/10/22 12:12:27;;;;;;;;;;;;;;;-144.99;100.00;52499.06;5119859;27;20288;-68
2023/10/22 12:14:54;;;;;;;;;;;;;;;-144.99;100.00;52492.94;5122983;27;20528;-66
2023/10/22 12:17:20;;;;;;;;;;;;;;;-144.99;100.00;52470.50;5126339;27;20287;-67
2023/10/22 12:19:47;;;;;;;;;;;;;;;-144.99;100.00;52484.78;5119910;27;19928;-66
2023/10/22 12:22:13;;;;;;;;;;;;;;;-144.99;100.00;52480.72;5121048;27;19928;-67
2023/10/22 12:24:40;;;;;;;;;;;;;;;-144.99;100.00;52492.94;5120880;27;19966;-67